Accueil
METAR-TAF:

METAR-TAF

Aéroports :

Gilze-Rijen, Pays-Bas

latitude: 51-34N, longitude: 004-56E, altitude: 15 m

Observation

Le bulletin a été fait il y a 17 minutes, à 18:25 UTC
Vent 2 kt de direction variable
Température 11°C
Humidité 94%
Pression 1018 hPa
Visibilité: 8000 m
Ciel couvert à une hauteur de 12000 ft
brume, Brouillard mince

METAR: EHGR 171825Z AUTO VRB01KT 9999 OVC120 11/10 Q1018 BLU VRB02KT 8000 BR MIFG NSC

Heure: 20:42 (18:42 UTC)

Prévision

Le bulletin a été fait il y a 2 heures et 1 minutes, à 16:41 UTC
Prévision valable du 17 à 17 UTC au 18 à 05 UTC
Vent 2 kt de direction variable
Visibilité 10 km ou plus
pas de nuages en-dessous de 1500 mètres et pas de cumulonimbus.
Evoluant progressivement
du 17 à 23 UTC au 18 à 01 UTC
Vent 6 kt de nord-est

TAF: EHGR 171641Z 1717/1805 VRB02KT CAVOK BECMG 1723/1801 05006KT

Observations et prévisions météorologiques de plus de 4000 aéroports (messages METAR et TAF).

Les stations disponibles sont représentées par des disques jaunes et rouges sur la carte.

Passer la souris dessus pour voir le nom de la station.

Cliquer dessus pour voir les observations et prévisions météorologiques.

Pour changer de carte: cliquez sur les boutons verts avec une croix noire pour zoomer, sur le bouton vert avec un tiret pour effectuer un zoom arrière, ou sur les flèches vertes pour les cartes adjacentes.


METAR-TAF: